createdAt,value
2023-08-15T00:02:58.455Z,7.22
2023-08-15T00:08:00.030Z,6.68
2023-08-15T00:13:01.487Z,8.25
2023-08-15T00:18:03.123Z,6.10
2023-08-15T00:23:04.884Z,6.55
2023-08-15T00:28:06.677Z,6.20
2023-08-15T00:33:08.199Z,7.13
2023-08-15T00:38:09.715Z,7.13
2023-08-15T00:43:11.232Z,5.75
2023-08-15T00:48:13.053Z,8.60
2023-08-15T00:53:17.748Z,6.85
2023-08-15T00:58:19.268Z,9.48
2023-08-15T01:03:21.136Z,9.35
2023-08-15T01:08:22.661Z,6.25
2023-08-15T01:13:40.368Z,9.32
2023-08-15T01:19:06.901Z,6.32
2023-08-15T01:24:08.830Z,6.40
2023-08-15T01:29:10.264Z,9.00
2023-08-15T01:34:13.477Z,7.05
2023-08-15T01:39:23.111Z,6.77
2023-08-15T01:44:26.055Z,7.85
2023-08-15T01:49:27.509Z,7.63
2023-08-15T01:54:29.429Z,6.07
2023-08-15T01:59:32.234Z,8.30
2023-08-15T02:04:34.291Z,7.20
2023-08-15T02:09:35.792Z,8.90
2023-08-15T02:14:37.303Z,7.97
2023-08-15T02:19:38.773Z,7.15
2023-08-15T02:24:40.226Z,7.85
2023-08-15T02:29:41.723Z,7.80
2023-08-15T02:34:43.169Z,6.45
2023-08-15T02:39:44.635Z,6.63
2023-08-15T02:44:46.913Z,7.47
2023-08-15T02:49:48.379Z,7.65
2023-08-15T02:54:49.830Z,6.20
2023-08-15T02:59:51.320Z,6.97
2023-08-15T03:04:52.791Z,7.95
2023-08-15T03:09:54.338Z,6.57
2023-08-15T03:14:57.187Z,6.65
2023-08-15T03:19:59.677Z,7.07
2023-08-15T03:25:01.257Z,7.93
2023-08-15T03:30:02.908Z,9.50
2023-08-15T03:35:05.371Z,7.93
2023-08-15T03:40:07.684Z,9.00
2023-08-15T03:45:09.475Z,8.73
2023-08-15T03:50:10.945Z,7.78
2023-08-15T03:55:12.414Z,8.35
2023-08-15T04:00:14.237Z,8.75
2023-08-15T04:05:15.888Z,6.97
2023-08-15T04:10:17.399Z,7.38
2023-08-15T04:15:19.341Z,9.75
2023-08-15T04:20:20.797Z,8.38
2023-08-15T04:25:22.273Z,10.15
2023-08-15T04:30:23.789Z,9.05
2023-08-15T04:35:26.090Z,12.52
2023-08-15T04:40:36.928Z,10.63
2023-08-15T04:45:38.550Z,11.65
2023-08-15T04:50:40.629Z,10.65
2023-08-15T04:55:42.199Z,12.90
2023-08-15T05:00:43.687Z,9.85
2023-08-15T05:05:45.231Z,14.40
2023-08-15T05:10:46.818Z,10.68
2023-08-15T05:15:48.348Z,10.10
2023-08-15T05:20:49.966Z,10.25
2023-08-15T05:25:51.668Z,10.00
2023-08-15T05:30:53.344Z,10.45
2023-08-15T05:35:55.409Z,9.32
2023-08-15T05:40:57.534Z,10.23
2023-08-15T05:45:58.982Z,13.35
2023-08-15T05:51:00.490Z,13.40
2023-08-15T05:56:01.968Z,11.93
2023-08-15T06:01:03.479Z,10.68
2023-08-15T06:06:05.040Z,10.10
2023-08-15T06:11:06.963Z,9.40
2023-08-15T06:16:08.416Z,11.98
2023-08-15T06:21:10.111Z,8.95
2023-08-15T06:26:11.581Z,9.98
2023-08-15T06:31:13.067Z,10.77
2023-08-15T06:36:14.545Z,10.18
2023-08-15T06:41:16.124Z,8.52
2023-08-15T06:46:17.658Z,7.75
2023-08-15T06:51:19.202Z,8.40
2023-08-15T06:56:21.771Z,7.97
2023-08-15T07:01:23.293Z,8.30
2023-08-15T07:06:24.915Z,8.38
2023-08-15T07:11:26.449Z,9.00
2023-08-15T07:16:27.945Z,8.40
2023-08-15T07:21:29.420Z,11.15
2023-08-15T07:26:30.868Z,8.80
2023-08-15T07:31:32.476Z,10.73
2023-08-15T07:36:33.956Z,9.27
2023-08-15T07:41:35.440Z,8.90
2023-08-15T07:46:36.891Z,10.20
2023-08-15T07:51:38.355Z,8.45
2023-08-15T07:56:39.846Z,9.07
2023-08-15T08:01:41.386Z,8.65
2023-08-15T08:06:42.884Z,10.98
2023-08-15T08:11:44.374Z,9.93
2023-08-15T08:16:45.841Z,8.80
2023-08-15T08:21:47.319Z,9.55
2023-08-15T08:26:48.782Z,10.38
2023-08-15T08:31:50.483Z,9.80
2023-08-15T08:36:51.942Z,9.23
2023-08-15T08:41:53.469Z,9.30
2023-08-15T08:46:55.564Z,11.45
2023-08-15T08:51:57.383Z,11.40
2023-08-15T08:57:01.400Z,9.75
2023-08-15T09:02:03.529Z,12.85
2023-08-15T09:07:05.001Z,10.40
2023-08-15T09:12:06.619Z,7.70
2023-08-15T09:17:11.072Z,6.95
2023-08-15T09:22:22.040Z,9.35
2023-08-15T09:27:24.287Z,7.30
2023-08-15T09:32:25.829Z,9.38
2023-08-15T09:37:27.533Z,7.93
2023-08-15T09:42:29.043Z,7.18
2023-08-15T09:47:30.569Z,10.30
2023-08-15T09:52:32.102Z,8.80
2023-08-15T09:57:33.602Z,8.77
2023-08-15T10:02:36.088Z,7.97
2023-08-15T10:07:38.634Z,8.32
2023-08-15T10:12:42.177Z,8.75
2023-08-15T10:17:44.007Z,7.68
2023-08-15T10:22:45.508Z,7.35
2023-08-15T10:27:49.482Z,7.53
2023-08-15T10:32:51.089Z,7.37
2023-08-15T10:37:52.582Z,7.75
2023-08-15T10:43:03.288Z,7.35
2023-08-15T10:48:06.393Z,9.32
2023-08-15T10:53:07.958Z,9.90
2023-08-15T10:58:11.429Z,9.27
2023-08-15T11:03:13.015Z,13.63
2023-08-15T11:08:19.930Z,13.32
2023-08-15T11:13:21.358Z,14.65
2023-08-15T11:18:22.920Z,13.80
2023-08-15T11:23:24.498Z,16.00
2023-08-15T11:28:27.340Z,14.10
2023-08-15T11:33:32.067Z,12.95
2023-08-15T11:38:35.720Z,13.95
2023-08-15T11:43:37.259Z,11.57
2023-08-15T11:48:38.769Z,13.75
2023-08-15T11:53:49.836Z,9.68
2023-08-15T11:58:51.388Z,10.57
2023-08-15T12:03:53.658Z,10.43
2023-08-15T12:08:55.195Z,10.95
2023-08-15T12:13:56.696Z,9.18
2023-08-15T12:18:58.617Z,8.10
2023-08-15T12:24:00.087Z,10.02
2023-08-15T12:29:01.581Z,7.40
2023-08-15T12:34:03.195Z,5.10
2023-08-15T12:39:04.911Z,4.72
2023-08-15T12:44:06.405Z,4.47
2023-08-15T12:49:07.843Z,4.50
2023-08-15T12:54:09.330Z,5.75
2023-08-15T12:59:10.967Z,4.80
2023-08-15T13:04:12.470Z,4.13
2023-08-15T13:09:13.939Z,3.88
2023-08-15T13:14:15.434Z,5.22
2023-08-15T13:19:16.918Z,5.20
2023-08-15T13:24:18.511Z,3.60
2023-08-15T13:29:20.242Z,3.42
2023-08-15T13:34:21.679Z,3.72
2023-08-15T13:39:23.331Z,3.28
2023-08-15T13:44:24.828Z,4.00
2023-08-15T13:49:26.262Z,6.75
2023-08-15T13:54:27.777Z,2.72
2023-08-15T13:59:29.277Z,2.00
2023-08-15T14:04:30.717Z,3.90
2023-08-15T14:09:32.194Z,2.97
2023-08-15T14:14:33.725Z,2.63
2023-08-15T14:19:35.194Z,2.17
2023-08-15T14:24:36.664Z,2.03
2023-08-15T14:29:38.106Z,4.32
2023-08-15T14:34:39.560Z,2.47
2023-08-15T14:39:41.276Z,7.43
2023-08-15T14:44:42.785Z,3.33
2023-08-15T14:49:44.300Z,2.38
2023-08-15T14:54:45.749Z,3.83
2023-08-15T14:59:47.545Z,4.43
2023-08-15T15:04:49.046Z,3.67
2023-08-15T15:09:50.590Z,3.17
2023-08-15T15:14:52.069Z,4.85
2023-08-15T15:19:53.550Z,4.90
2023-08-15T15:24:55.050Z,5.70
2023-08-15T15:29:56.533Z,4.45
2023-08-15T15:34:57.976Z,2.47
2023-08-15T15:40:00.886Z,2.60
2023-08-15T15:45:02.469Z,1.77
2023-08-15T15:50:04.118Z,1.88
2023-08-15T15:55:07.495Z,3.72
2023-08-15T16:05:12.595Z,5.22
2023-08-15T16:10:14.201Z,6.55
2023-08-15T16:15:15.741Z,7.40
2023-08-15T16:20:17.231Z,4.55
2023-08-15T16:25:18.776Z,3.42
2023-08-15T16:30:20.373Z,4.88
2023-08-15T16:35:21.966Z,5.28
2023-08-15T16:40:23.668Z,2.80
2023-08-15T16:45:25.121Z,4.70
2023-08-15T16:50:26.637Z,5.35
2023-08-15T16:55:28.780Z,5.22
2023-08-15T17:00:30.768Z,6.35
2023-08-15T17:05:32.264Z,4.60
2023-08-15T17:10:33.862Z,3.67
2023-08-15T17:15:35.431Z,2.92
2023-08-15T17:20:37.435Z,7.55
2023-08-15T17:25:38.956Z,4.07
2023-08-15T17:30:40.474Z,4.43
2023-08-15T17:35:43.705Z,3.75
2023-08-15T17:40:45.317Z,3.03
2023-08-15T17:45:46.886Z,4.60
2023-08-15T17:50:48.665Z,2.88
2023-08-15T17:55:50.171Z,5.55
2023-08-15T18:00:51.733Z,3.88
2023-08-15T18:05:53.207Z,3.25
2023-08-15T18:10:54.736Z,3.42
2023-08-15T18:15:56.305Z,5.20
2023-08-15T18:20:57.873Z,5.68
2023-08-15T18:25:59.668Z,2.78
2023-08-15T18:31:01.191Z,3.08
2023-08-15T18:36:02.769Z,3.47
2023-08-15T18:41:04.377Z,4.50
2023-08-15T18:46:05.893Z,4.80
2023-08-15T18:51:07.601Z,3.67
2023-08-15T18:56:09.075Z,4.15
2023-08-15T19:01:10.595Z,5.88
2023-08-15T19:06:12.168Z,3.35
2023-08-15T19:11:13.656Z,3.95
2023-08-15T19:16:15.144Z,7.65
2023-08-15T19:21:16.667Z,3.33
2023-08-15T19:26:18.164Z,7.28
2023-08-15T19:31:19.650Z,9.10
2023-08-15T19:36:21.185Z,7.57
2023-08-15T19:41:22.711Z,8.38
2023-08-15T19:46:24.198Z,8.25
2023-08-15T19:51:25.804Z,7.07
2023-08-15T19:56:27.323Z,8.38
2023-08-15T20:01:28.883Z,7.65
2023-08-15T20:06:30.392Z,4.15
2023-08-15T20:11:31.859Z,4.43
2023-08-15T20:16:33.462Z,4.97
2023-08-15T20:21:34.976Z,7.05
2023-08-15T20:26:36.455Z,4.15
2023-08-15T20:31:38.013Z,3.40
2023-08-15T20:36:39.513Z,5.75
2023-08-15T20:41:41.022Z,3.40
2023-08-15T20:46:42.550Z,6.70
2023-08-15T20:51:44.169Z,5.50
2023-08-15T20:56:45.665Z,3.38
2023-08-15T21:01:47.148Z,6.78
2023-08-15T21:06:48.857Z,3.88
2023-08-15T21:11:50.340Z,4.45
2023-08-15T21:16:52.296Z,5.35
2023-08-15T21:21:53.887Z,5.60
2023-08-15T21:26:55.915Z,5.47
2023-08-15T21:31:57.419Z,3.75
2023-08-15T21:36:58.922Z,7.18
2023-08-15T21:42:00.474Z,5.05
2023-08-15T21:47:01.933Z,5.88
2023-08-15T21:52:03.556Z,6.47
2023-08-15T21:57:05.710Z,4.88
2023-08-15T22:02:07.188Z,7.53
2023-08-15T22:07:08.799Z,4.57
2023-08-15T22:12:12.437Z,6.00
2023-08-15T22:17:13.966Z,3.95
2023-08-15T22:22:15.522Z,4.05
2023-08-15T22:27:17.090Z,5.28
2023-08-15T22:32:18.578Z,3.78
2023-08-15T22:37:20.303Z,5.47
2023-08-15T22:42:21.970Z,5.43
2023-08-15T22:47:23.739Z,2.83
2023-08-15T22:52:25.558Z,6.07
2023-08-15T22:57:27.012Z,3.75
2023-08-15T23:02:28.471Z,4.25
2023-08-15T23:07:30.025Z,4.00
2023-08-15T23:12:31.619Z,4.97
2023-08-15T23:17:33.139Z,7.55
2023-08-15T23:22:34.710Z,5.20
2023-08-15T23:27:36.346Z,3.22
2023-08-15T23:32:37.869Z,5.72
2023-08-15T23:37:39.353Z,7.93
2023-08-15T23:42:41.620Z,3.33
2023-08-15T23:47:43.220Z,4.43
2023-08-15T23:52:44.820Z,5.60
2023-08-15T23:57:46.317Z,4.40
